Assaria, Kansas
Current Conditions -  °F | °C
As of 11:53 AM on Thursday 23 Oct 2014 (Local Time) from KSLN Reporting Station
Clear Clear  
Wind Chill: 21°   Ceiling: Unl
Heat Index: 21°   Visibility: 10mi
Dew Point: 16°   Wind: 6mph
Humidity: 71%   Direction: 210°SSW
Pressure: 30.1"   Gusts: NA
Location:  38.68°N, 97.6°W
Report Text: KSLN 231653Z 21005KT 10SM CLR 21/16 A3010 RMK AO2 SLP186 T02110156
Loading
Personal Weather Stations






























Interactive Weather Map
Tropical Storm Tracking
New forecast layout! Learn more

10-Day Weather Forecast

Advertisements
Track Severe Weather on mobile